JBU7369 KRDU-KDCA
Flight info
| Callsign | JBU7369 |
|---|---|
| Flight time | 0h 46m |
| Altitude | 27000 |
| Route | BEXGO5 BOUSY WAVES CAPSS3 |
| Aircraft | A20N/M-SDE2E3FGHIRWXY/LB1 |
Departure
| Time | 2026-04-26 12:38 |
|---|---|
| Airport | Raleigh-Durham International Airport (KRDU) |
Arrival
| Time | 2026-04-26 13:24 |
|---|---|
| Airport | Ronald Reagan Washington National Airport (KDCA) |
| Time | Latitude | Longitude | Altitude | Speed | Heading |
|---|---|---|---|---|---|
| 2026-04-26 12:11 | 35.87755 | -78.79413 | 389 ft | 0 kts | 135° |
| 2026-04-26 12:25 | 35.87756 | -78.79414 | 389 ft | 0 kts | 135° |
| 2026-04-26 12:26 | 35.87765 | -78.79425 | 388 ft | 2 kts | 135° |
| 2026-04-26 12:26 | 35.87776 | -78.79438 | 387 ft | 2 kts | 135° |
| 2026-04-26 12:26 | 35.87787 | -78.79452 | 387 ft | 2 kts | 135° |
| 2026-04-26 12:26 | 35.87794 | -78.79464 | 386 ft | 2 kts | 90° |
| 2026-04-26 12:27 | 35.87789 | -78.79481 | 385 ft | 2 kts | 33° |
| 2026-04-26 12:27 | 35.87782 | -78.79486 | 385 ft | 1 kts | 41° |
| 2026-04-26 12:27 | 35.87781 | -78.79487 | 385 ft | 0 kts | 42° |
| 2026-04-26 12:27 | 35.87782 | -78.79487 | 385 ft | 0 kts | 42° |
| 2026-04-26 12:30 | 35.87782 | -78.79486 | 385 ft | 0 kts | 42° |
| 2026-04-26 12:30 | 35.87791 | -78.79476 | 385 ft | 5 kts | 43° |
| 2026-04-26 12:31 | 35.87929 | -78.79305 | 388 ft | 16 kts | 45° |
| 2026-04-26 12:31 | 35.88003 | -78.79215 | 391 ft | 14 kts | 44° |
| 2026-04-26 12:31 | 35.88074 | -78.79127 | 393 ft | 15 kts | 46° |
| 2026-04-26 12:31 | 35.88145 | -78.79036 | 395 ft | 14 kts | 43° |
| 2026-04-26 12:32 | 35.88223 | -78.78941 | 398 ft | 17 kts | 46° |
| 2026-04-26 12:32 | 35.88303 | -78.78842 | 400 ft | 16 kts | 45° |
| 2026-04-26 12:32 | 35.88459 | -78.78654 | 404 ft | 14 kts | 50° |
| 2026-04-26 12:33 | 35.88527 | -78.78562 | 403 ft | 16 kts | 44° |
| 2026-04-26 12:33 | 35.88624 | -78.78444 | 402 ft | 21 kts | 46° |
| 2026-04-26 12:33 | 35.88721 | -78.78310 | 400 ft | 21 kts | 51° |
| 2026-04-26 12:33 | 35.88813 | -78.78200 | 399 ft | 15 kts | 42° |
| 2026-04-26 12:34 | 35.88891 | -78.78114 | 399 ft | 15 kts | 44° |
| 2026-04-26 12:34 | 35.88964 | -78.78019 | 399 ft | 15 kts | 54° |
| 2026-04-26 12:34 | 35.89007 | -78.77904 | 401 ft | 14 kts | 62° |
| 2026-04-26 12:34 | 35.89070 | -78.77814 | 402 ft | 14 kts | 46° |
| 2026-04-26 12:35 | 35.89137 | -78.77731 | 404 ft | 13 kts | 45° |
| 2026-04-26 12:35 | 35.89202 | -78.77662 | 405 ft | 12 kts | 21° |
| 2026-04-26 12:35 | 35.89280 | -78.77707 | 403 ft | 14 kts | 326° |
| 2026-04-26 12:35 | 35.89299 | -78.77726 | 403 ft | 0 kts | 315° |
| 2026-04-26 12:36 | 35.89304 | -78.77731 | 403 ft | 4 kts | 316° |
| 2026-04-26 12:36 | 35.89349 | -78.77792 | 402 ft | 13 kts | 308° |
| 2026-04-26 12:36 | 35.89330 | -78.77876 | 401 ft | 13 kts | 219° |
| 2026-04-26 12:36 | 35.89254 | -78.77957 | 398 ft | 15 kts | 223° |
| 2026-04-26 12:37 | 35.89182 | -78.78052 | 396 ft | 16 kts | 223° |
| 2026-04-26 12:37 | 35.89068 | -78.78200 | 393 ft | 50 kts | 225° |
| 2026-04-26 12:37 | 35.88650 | -78.78707 | 396 ft | 124 kts | 225° |
| 2026-04-26 12:37 | 35.87911 | -78.79611 | 529 ft | 171 kts | 225° |
| 2026-04-26 12:38 | 35.87080 | -78.80633 | 1053 ft | 188 kts | 225° |
| 2026-04-26 12:38 | 35.86089 | -78.81831 | 1379 ft | 225 kts | 225° |
| 2026-04-26 12:38 | 35.84898 | -78.83251 | 1603 ft | 268 kts | 225° |
| 2026-04-26 12:38 | 35.83525 | -78.84882 | 1873 ft | 291 kts | 225° |
| 2026-04-26 12:39 | 35.82139 | -78.86523 | 2133 ft | 277 kts | 225° |
| 2026-04-26 12:39 | 35.80766 | -78.88152 | 2405 ft | 277 kts | 225° |
| 2026-04-26 12:39 | 35.79411 | -78.89770 | 2674 ft | 277 kts | 225° |
| 2026-04-26 12:39 | 35.78076 | -78.91365 | 2930 ft | 279 kts | 225° |
| 2026-04-26 12:40 | 35.76711 | -78.93002 | 3197 ft | 279 kts | 225° |
| 2026-04-26 12:40 | 35.75558 | -78.94849 | 3530 ft | 285 kts | 250° |
| 2026-04-26 12:40 | 35.75384 | -78.97189 | 4508 ft | 280 kts | 286° |
| 2026-04-26 12:40 | 35.76253 | -78.99161 | 5717 ft | 267 kts | 317° |
| 2026-04-26 12:41 | 35.77718 | -79.00365 | 6656 ft | 267 kts | 341° |
| 2026-04-26 12:41 | 35.79481 | -79.00707 | 7512 ft | 271 kts | 5° |
| 2026-04-26 12:41 | 35.81195 | -79.00080 | 8375 ft | 276 kts | 30° |
| 2026-04-26 12:41 | 35.82553 | -78.98635 | 9214 ft | 280 kts | 45° |
| 2026-04-26 12:42 | 35.83612 | -78.97224 | 9901 ft | 284 kts | 45° |
| 2026-04-26 12:42 | 35.84727 | -78.95763 | 10542 ft | 290 kts | 44° |
| 2026-04-26 12:42 | 35.86103 | -78.93986 | 10982 ft | 306 kts | 44° |
| 2026-04-26 12:42 | 35.87518 | -78.92177 | 11430 ft | 321 kts | 44° |
| 2026-04-26 12:43 | 35.89006 | -78.90279 | 12123 ft | 327 kts | 44° |
| 2026-04-26 12:43 | 35.90528 | -78.88341 | 12908 ft | 330 kts | 44° |
| 2026-04-26 12:43 | 35.92041 | -78.86418 | 13647 ft | 333 kts | 44° |
| 2026-04-26 12:43 | 35.93611 | -78.84426 | 14363 ft | 338 kts | 44° |
| 2026-04-26 12:44 | 35.95194 | -78.82416 | 15059 ft | 343 kts | 44° |
| 2026-04-26 12:44 | 35.96832 | -78.80334 | 15727 ft | 349 kts | 44° |
| 2026-04-26 12:44 | 35.98491 | -78.78226 | 16351 ft | 355 kts | 44° |
| 2026-04-26 12:44 | 36.00193 | -78.76066 | 16998 ft | 360 kts | 44° |
| 2026-04-26 12:45 | 36.01886 | -78.73911 | 17607 ft | 365 kts | 43° |
| 2026-04-26 12:45 | 36.03644 | -78.71678 | 18218 ft | 371 kts | 44° |
| 2026-04-26 12:45 | 36.05412 | -78.69432 | 18849 ft | 376 kts | 44° |
| 2026-04-26 12:45 | 36.07203 | -78.67152 | 19506 ft | 379 kts | 44° |
| 2026-04-26 12:46 | 36.08990 | -78.64875 | 20094 ft | 384 kts | 44° |
| 2026-04-26 12:46 | 36.10783 | -78.62586 | 20660 ft | 388 kts | 44° |
| 2026-04-26 12:46 | 36.12588 | -78.60279 | 21226 ft | 392 kts | 44° |
| 2026-04-26 12:46 | 36.14458 | -78.57886 | 21789 ft | 397 kts | 44° |
| 2026-04-26 12:47 | 36.16336 | -78.55483 | 22348 ft | 401 kts | 44° |
| 2026-04-26 12:47 | 36.18215 | -78.53077 | 23005 ft | 401 kts | 44° |
| 2026-04-26 12:47 | 36.20130 | -78.50621 | 23637 ft | 403 kts | 44° |
| 2026-04-26 12:47 | 36.22040 | -78.48171 | 24206 ft | 407 kts | 44° |
| 2026-04-26 12:48 | 36.23923 | -78.45756 | 24704 ft | 411 kts | 44° |
| 2026-04-26 12:48 | 36.25835 | -78.43333 | 25222 ft | 415 kts | 42° |
| 2026-04-26 12:48 | 36.27922 | -78.40939 | 25713 ft | 418 kts | 38° |
| 2026-04-26 12:48 | 36.30140 | -78.38703 | 26220 ft | 421 kts | 35° |
| 2026-04-26 12:49 | 36.32399 | -78.36588 | 26720 ft | 424 kts | 34° |
| 2026-04-26 12:49 | 36.34678 | -78.34485 | 27189 ft | 428 kts | 35° |
| 2026-04-26 12:49 | 36.36993 | -78.32350 | 27614 ft | 431 kts | 35° |
| 2026-04-26 12:49 | 36.39357 | -78.30160 | 28040 ft | 435 kts | 35° |
| 2026-04-26 12:50 | 36.41703 | -78.27979 | 28430 ft | 439 kts | 35° |
| 2026-04-26 12:50 | 36.44043 | -78.25796 | 28820 ft | 442 kts | 35° |
| 2026-04-26 12:50 | 36.46448 | -78.23549 | 29180 ft | 446 kts | 35° |
| 2026-04-26 12:50 | 36.48816 | -78.21335 | 29549 ft | 449 kts | 35° |
| 2026-04-26 12:51 | 36.51248 | -78.19060 | 29918 ft | 451 kts | 36° |
| 2026-04-26 12:51 | 36.53638 | -78.16811 | 30569 ft | 446 kts | 36° |
| 2026-04-26 12:51 | 36.55992 | -78.14588 | 31381 ft | 435 kts | 36° |
| 2026-04-26 12:51 | 36.58266 | -78.12440 | 31978 ft | 424 kts | 36° |
| 2026-04-26 12:52 | 36.59782 | -78.11008 | 31975 ft | 422 kts | 36° |
| 2026-04-26 12:52 | 36.62814 | -78.08145 | 30983 ft | 431 kts | 36° |
| 2026-04-26 12:52 | 36.65151 | -78.05938 | 29970 ft | 442 kts | 36° |
| 2026-04-26 12:52 | 36.67551 | -78.03667 | 29127 ft | 446 kts | 36° |
| 2026-04-26 12:53 | 36.69953 | -78.01389 | 28579 ft | 443 kts | 36° |
| 2026-04-26 12:53 | 36.72283 | -77.99178 | 28119 ft | 439 kts | 36° |
| 2026-04-26 12:53 | 36.74608 | -77.96971 | 27666 ft | 434 kts | 35° |
| 2026-04-26 12:53 | 36.76923 | -77.94771 | 27211 ft | 430 kts | 35° |
| 2026-04-26 12:54 | 36.79219 | -77.92607 | 27047 ft | 427 kts | 34° |
| 2026-04-26 12:54 | 36.81642 | -77.90566 | 27048 ft | 427 kts | 30° |
| 2026-04-26 12:54 | 36.84184 | -77.88752 | 27048 ft | 426 kts | 25° |
| 2026-04-26 12:54 | 36.86736 | -77.87193 | 27049 ft | 425 kts | 22° |
| 2026-04-26 12:55 | 36.89339 | -77.85679 | 27046 ft | 424 kts | 22° |
| 2026-04-26 12:55 | 36.91960 | -77.84167 | 27041 ft | 424 kts | 22° |
| 2026-04-26 12:55 | 36.94564 | -77.82660 | 27043 ft | 423 kts | 22° |
| 2026-04-26 12:55 | 36.97168 | -77.81145 | 27045 ft | 422 kts | 22° |
| 2026-04-26 12:56 | 36.99736 | -77.79647 | 27041 ft | 422 kts | 22° |
| 2026-04-26 12:56 | 37.02233 | -77.78187 | 27039 ft | 423 kts | 22° |
| 2026-04-26 12:56 | 37.04807 | -77.76678 | 26804 ft | 421 kts | 22° |
| 2026-04-26 12:56 | 37.07315 | -77.75205 | 26558 ft | 418 kts | 22° |
| 2026-04-26 12:57 | 37.09775 | -77.73759 | 26316 ft | 416 kts | 22° |
| 2026-04-26 12:57 | 37.11861 | -77.72533 | 26108 ft | 414 kts | 22° |
| 2026-04-26 12:57 | 37.13411 | -77.71621 | 25955 ft | 413 kts | 22° |
| 2026-04-26 12:58 | 37.18510 | -77.68617 | 25440 ft | 409 kts | 22° |
| 2026-04-26 12:58 | 37.20999 | -77.67149 | 25198 ft | 407 kts | 22° |
| 2026-04-26 12:58 | 37.23519 | -77.65662 | 24936 ft | 405 kts | 22° |
| 2026-04-26 12:58 | 37.24935 | -77.64827 | 24801 ft | 404 kts | 22° |
| 2026-04-26 12:59 | 37.27439 | -77.63348 | 24560 ft | 400 kts | 22° |
| 2026-04-26 12:59 | 37.29863 | -77.61915 | 24314 ft | 398 kts | 22° |
| 2026-04-26 12:59 | 37.32309 | -77.60466 | 24071 ft | 396 kts | 22° |
| 2026-04-26 12:59 | 37.34787 | -77.59000 | 23824 ft | 394 kts | 22° |
| 2026-04-26 13:00 | 37.37168 | -77.57591 | 23593 ft | 391 kts | 22° |
| 2026-04-26 13:00 | 37.39533 | -77.56188 | 23353 ft | 389 kts | 22° |
| 2026-04-26 13:00 | 37.41907 | -77.54779 | 23114 ft | 387 kts | 22° |
| 2026-04-26 13:00 | 37.44360 | -77.53324 | 22863 ft | 384 kts | 22° |
| 2026-04-26 13:01 | 37.46740 | -77.51910 | 22624 ft | 382 kts | 22° |
| 2026-04-26 13:01 | 37.49111 | -77.50499 | 22390 ft | 379 kts | 22° |
| 2026-04-26 13:01 | 37.51479 | -77.49090 | 22150 ft | 376 kts | 22° |
| 2026-04-26 13:01 | 37.53815 | -77.47698 | 21913 ft | 374 kts | 22° |
| 2026-04-26 13:02 | 37.56107 | -77.46337 | 21672 ft | 371 kts | 21° |
| 2026-04-26 13:02 | 37.58390 | -77.45146 | 21438 ft | 368 kts | 17° |
| 2026-04-26 13:02 | 37.60769 | -77.44161 | 21233 ft | 365 kts | 13° |
| 2026-04-26 13:02 | 37.63209 | -77.43363 | 20994 ft | 362 kts | 11° |
| 2026-04-26 13:03 | 37.65600 | -77.42635 | 20760 ft | 359 kts | 11° |
| 2026-04-26 13:03 | 37.67968 | -77.41917 | 20517 ft | 357 kts | 11° |
| 2026-04-26 13:03 | 37.70337 | -77.41194 | 20227 ft | 355 kts | 11° |
| 2026-04-26 13:03 | 37.72746 | -77.40456 | 19872 ft | 353 kts | 11° |
| 2026-04-26 13:04 | 37.75105 | -77.39731 | 19494 ft | 350 kts | 11° |
| 2026-04-26 13:04 | 37.77428 | -77.39015 | 19121 ft | 348 kts | 12° |
| 2026-04-26 13:04 | 37.79713 | -77.38309 | 18728 ft | 346 kts | 12° |
| 2026-04-26 13:04 | 37.82082 | -77.37576 | 18299 ft | 343 kts | 12° |
| 2026-04-26 13:05 | 37.84369 | -77.36868 | 17872 ft | 340 kts | 12° |
| 2026-04-26 13:05 | 37.86655 | -77.36159 | 17437 ft | 338 kts | 12° |
| 2026-04-26 13:05 | 37.88903 | -77.35463 | 17011 ft | 335 kts | 13° |
| 2026-04-26 13:05 | 37.91156 | -77.34767 | 16766 ft | 327 kts | 13° |
| 2026-04-26 13:06 | 37.93335 | -77.34096 | 16371 ft | 325 kts | 13° |
| 2026-04-26 13:06 | 37.95502 | -77.33431 | 15953 ft | 322 kts | 13° |
| 2026-04-26 13:06 | 37.97640 | -77.32773 | 15562 ft | 319 kts | 14° |
| 2026-04-26 13:06 | 37.99821 | -77.32101 | 15158 ft | 316 kts | 14° |
| 2026-04-26 13:07 | 38.01955 | -77.31443 | 14767 ft | 313 kts | 14° |
| 2026-04-26 13:07 | 38.04046 | -77.30799 | 14374 ft | 310 kts | 14° |
| 2026-04-26 13:07 | 38.06103 | -77.30163 | 13993 ft | 307 kts | 14° |
| 2026-04-26 13:07 | 38.08228 | -77.29504 | 13595 ft | 304 kts | 14° |
| 2026-04-26 13:08 | 38.10271 | -77.28863 | 13203 ft | 302 kts | 14° |
| 2026-04-26 13:08 | 38.12295 | -77.28226 | 12796 ft | 300 kts | 14° |
| 2026-04-26 13:08 | 38.14226 | -77.27617 | 12407 ft | 298 kts | 14° |
| 2026-04-26 13:08 | 38.16186 | -77.27000 | 12011 ft | 295 kts | 14° |
| 2026-04-26 13:09 | 38.18117 | -77.26392 | 11626 ft | 294 kts | 14° |
| 2026-04-26 13:09 | 38.20095 | -77.25769 | 11222 ft | 292 kts | 14° |
| 2026-04-26 13:09 | 38.22036 | -77.25154 | 10818 ft | 291 kts | 14° |
| 2026-04-26 13:09 | 38.24037 | -77.24519 | 10398 ft | 289 kts | 14° |
| 2026-04-26 13:10 | 38.25963 | -77.23907 | 10117 ft | 281 kts | 14° |
| 2026-04-26 13:10 | 38.27769 | -77.23334 | 10027 ft | 262 kts | 14° |
| 2026-04-26 13:10 | 38.29518 | -77.22778 | 9823 ft | 261 kts | 14° |
| 2026-04-26 13:10 | 38.31284 | -77.22216 | 9451 ft | 260 kts | 14° |
| 2026-04-26 13:11 | 38.33029 | -77.21542 | 9078 ft | 259 kts | 23° |
| 2026-04-26 13:11 | 38.34552 | -77.20431 | 8864 ft | 260 kts | 35° |
| 2026-04-26 13:11 | 38.35935 | -77.18964 | 8888 ft | 264 kts | 39° |
| 2026-04-26 13:11 | 38.37359 | -77.17359 | 8717 ft | 266 kts | 39° |
| 2026-04-26 13:12 | 38.38757 | -77.15773 | 8333 ft | 266 kts | 39° |
| 2026-04-26 13:12 | 38.40100 | -77.14249 | 7968 ft | 265 kts | 39° |
| 2026-04-26 13:12 | 38.41481 | -77.12686 | 7586 ft | 264 kts | 39° |
| 2026-04-26 13:12 | 38.42875 | -77.11111 | 7211 ft | 263 kts | 39° |
| 2026-04-26 13:13 | 38.44217 | -77.09594 | 6904 ft | 259 kts | 39° |
| 2026-04-26 13:13 | 38.45532 | -77.08107 | 6621 ft | 254 kts | 39° |
| 2026-04-26 13:13 | 38.46809 | -77.06660 | 6353 ft | 241 kts | 39° |
| 2026-04-26 13:13 | 38.48061 | -77.05242 | 6089 ft | 226 kts | 39° |
| 2026-04-26 13:14 | 38.49185 | -77.03970 | 5834 ft | 213 kts | 39° |
| 2026-04-26 13:14 | 38.50234 | -77.02782 | 5601 ft | 201 kts | 39° |
| 2026-04-26 13:14 | 38.51246 | -77.01690 | 5389 ft | 192 kts | 28° |
| 2026-04-26 13:14 | 38.52446 | -77.01081 | 5312 ft | 173 kts | 15° |
| 2026-04-26 13:15 | 38.53567 | -77.00844 | 5121 ft | 156 kts | 6° |
| 2026-04-26 13:15 | 38.54584 | -77.00809 | 4961 ft | 141 kts | 1° |
| 2026-04-26 13:15 | 38.55503 | -77.00854 | 4856 ft | 132 kts | 360° |
| 2026-04-26 13:15 | 38.56116 | -77.00896 | 4808 ft | 131 kts | 359° |
| 2026-04-26 13:16 | 38.57335 | -77.00990 | 4699 ft | 130 kts | 359° |
| 2026-04-26 13:16 | 38.58212 | -77.01064 | 4614 ft | 130 kts | 359° |
| 2026-04-26 13:16 | 38.59089 | -77.01142 | 4521 ft | 130 kts | 359° |
| 2026-04-26 13:16 | 38.59996 | -77.01228 | 4420 ft | 129 kts | 359° |
| 2026-04-26 13:17 | 38.61785 | -77.01404 | 4215 ft | 129 kts | 359° |
| 2026-04-26 13:17 | 38.62663 | -77.01493 | 4108 ft | 128 kts | 359° |
| 2026-04-26 13:18 | 38.64443 | -77.01676 | 3883 ft | 128 kts | 359° |
| 2026-04-26 13:18 | 38.65307 | -77.01766 | 3745 ft | 128 kts | 359° |
| 2026-04-26 13:18 | 38.67039 | -77.01946 | 3400 ft | 127 kts | 0° |
| 2026-04-26 13:19 | 38.67906 | -77.02035 | 3231 ft | 126 kts | 0° |
| 2026-04-26 13:19 | 38.68747 | -77.02122 | 3067 ft | 126 kts | 0° |
| 2026-04-26 13:19 | 38.69603 | -77.02210 | 2897 ft | 126 kts | 0° |
| 2026-04-26 13:19 | 38.70488 | -77.02300 | 2717 ft | 125 kts | 360° |
| 2026-04-26 13:20 | 38.71299 | -77.02383 | 2564 ft | 125 kts | 0° |
| 2026-04-26 13:20 | 38.72163 | -77.02470 | 2393 ft | 125 kts | 0° |
| 2026-04-26 13:20 | 38.73003 | -77.02554 | 2228 ft | 124 kts | 360° |
| 2026-04-26 13:20 | 38.73841 | -77.02640 | 2066 ft | 124 kts | 360° |
| 2026-04-26 13:21 | 38.74702 | -77.02727 | 1899 ft | 124 kts | 360° |
| 2026-04-26 13:21 | 38.75280 | -77.02784 | 1786 ft | 123 kts | 359° |
| 2026-04-26 13:21 | 38.76416 | -77.02899 | 1562 ft | 123 kts | 359° |
| 2026-04-26 13:21 | 38.77278 | -77.02985 | 1390 ft | 123 kts | 359° |
| 2026-04-26 13:22 | 38.78132 | -77.03072 | 1223 ft | 122 kts | 359° |
| 2026-04-26 13:22 | 38.78972 | -77.03155 | 1057 ft | 122 kts | 358° |
| 2026-04-26 13:22 | 38.79809 | -77.03238 | 904 ft | 122 kts | 359° |
| 2026-04-26 13:22 | 38.80651 | -77.03324 | 777 ft | 123 kts | 358° |
| 2026-04-26 13:23 | 38.81506 | -77.03410 | 643 ft | 123 kts | 358° |
| 2026-04-26 13:23 | 38.82352 | -77.03499 | 461 ft | 123 kts | 358° |
| 2026-04-26 13:23 | 38.83206 | -77.03593 | 257 ft | 123 kts | 357° |
| 2026-04-26 13:23 | 38.84048 | -77.03673 | 78 ft | 122 kts | 357° |
| 2026-04-26 13:24 | 38.84867 | -77.03754 | 16 ft | 100 kts | 358° |
| 2026-04-26 13:24 | 38.85273 | -77.03788 | 16 ft | 26 kts | 355° |
| 2026-04-26 13:24 | 38.85451 | -77.03812 | 16 ft | 24 kts | 339° |
| 2026-04-26 13:24 | 38.85532 | -77.03896 | 16 ft | 6 kts | 307° |
| 2026-04-26 13:25 | 38.85556 | -77.03947 | 17 ft | 6 kts | 290° |
| 2026-04-26 13:25 | 38.85558 | -77.03962 | 17 ft | 0 kts | 274° |
| 2026-04-26 13:25 | 38.85559 | -77.03971 | 18 ft | 5 kts | 270° |
| 2026-04-26 13:26 | 38.85542 | -77.04069 | 20 ft | 12 kts | 255° |
| 2026-04-26 13:26 | 38.85548 | -77.04134 | 21 ft | 6 kts | 302° |
| 2026-04-26 13:26 | 38.85565 | -77.04157 | 21 ft | 0 kts | 315° |
| 2026-04-26 13:26 | 38.85572 | -77.04166 | 21 ft | 2 kts | 315° |